createdAt,value
2023-10-08T00:04:30.904Z,65.28
2023-10-08T00:09:38.049Z,65.09
2023-10-08T00:14:45.541Z,64.65
2023-10-08T00:19:54.022Z,64.89
2023-10-08T00:24:59.496Z,64.67
2023-10-08T00:30:12.325Z,64.36
2023-10-08T00:35:21.834Z,63.83
2023-10-08T00:40:25.642Z,63.45
2023-10-08T00:45:31.643Z,63.56
2023-10-08T00:50:44.303Z,62.69
2023-10-08T00:55:54.764Z,63.11
2023-10-08T01:01:01.129Z,63.07
2023-10-08T01:06:11.053Z,63.79
2023-10-08T01:11:23.129Z,63.13
2023-10-08T01:16:28.348Z,64.23
2023-10-08T01:21:36.237Z,63.57
2023-10-08T01:26:41.922Z,63.66
2023-10-08T01:31:45.440Z,63.75
2023-10-08T01:36:49.963Z,63.47
2023-10-08T01:41:54.843Z,62.88
2023-10-08T01:46:59.752Z,62.90
2023-10-08T01:52:08.865Z,62.47
2023-10-08T01:57:13.831Z,62.45
2023-10-08T02:02:17.186Z,63.21
2023-10-08T02:07:22.389Z,63.19
2023-10-08T02:12:27.213Z,63.52
2023-10-08T02:17:30.998Z,63.63
2023-10-08T02:22:35.208Z,63.57
2023-10-08T02:27:40.043Z,62.91
2023-10-08T02:32:44.144Z,62.73
2023-10-08T02:37:47.696Z,63.51
2023-10-08T02:42:52.648Z,62.25
2023-10-08T02:47:56.703Z,61.76
2023-10-08T02:53:04.752Z,62.05
2023-10-08T02:58:12.639Z,61.48
2023-10-08T03:03:17.949Z,61.19
2023-10-08T03:08:22.898Z,60.90
2023-10-08T03:13:28.231Z,60.89
2023-10-08T03:18:37.448Z,61.48
2023-10-08T03:23:47.251Z,60.68
2023-10-08T03:28:58.841Z,60.76
2023-10-08T03:34:02.299Z,61.64
2023-10-08T03:39:14.567Z,61.16
2023-10-08T03:44:21.996Z,60.89
2023-10-08T03:49:32.640Z,61.45
2023-10-08T03:54:36.806Z,61.15
2023-10-08T03:59:42.904Z,61.34
2023-10-08T04:04:58.176Z,61.44
2023-10-08T04:10:28.416Z,61.90
2023-10-08T04:15:34.543Z,62.54
2023-10-08T04:20:40.252Z,61.81
2023-10-08T04:25:44.822Z,62.29
2023-10-08T04:30:52.427Z,62.59
2023-10-08T04:35:57.396Z,61.79
2023-10-08T04:41:03.747Z,61.90
2023-10-08T04:46:20.709Z,61.16
2023-10-08T04:51:24.478Z,61.79
2023-10-08T04:56:29.800Z,61.49
2023-10-08T05:01:48.662Z,60.97
2023-10-08T05:07:18.623Z,60.08
2023-10-08T05:12:36.071Z,60.21
2023-10-08T05:17:57.784Z,59.85
2023-10-08T05:23:21.568Z,59.84
2023-10-08T05:28:26.574Z,59.25
2023-10-08T05:33:52.379Z,58.06
2023-10-08T05:39:02.360Z,58.16
2023-10-08T05:44:39.885Z,57.95
2023-10-08T05:49:55.937Z,57.42
2023-10-08T05:55:26.336Z,58.06
2023-10-08T06:00:46.632Z,57.33
2023-10-08T06:06:08.682Z,56.60
2023-10-08T06:11:28.791Z,57.65
2023-10-08T06:16:45.066Z,56.51
2023-10-08T06:21:50.027Z,56.11
2023-10-08T06:26:53.265Z,55.28
2023-10-08T06:31:57.894Z,55.73
2023-10-08T06:37:03.031Z,54.26
2023-10-08T06:42:08.797Z,55.05
2023-10-08T06:47:12.341Z,55.05
2023-10-08T06:52:18.373Z,54.35
2023-10-08T06:57:22.367Z,54.99
2023-10-08T07:02:28.130Z,55.29
2023-10-08T07:07:33.450Z,54.63
2023-10-08T07:12:36.983Z,56.15
2023-10-08T07:17:41.907Z,55.82
2023-10-08T07:22:46.886Z,56.75
2023-10-08T07:27:50.567Z,57.76
2023-10-08T07:32:55.562Z,58.44
2023-10-08T07:38:00.507Z,58.44
2023-10-08T07:43:09.881Z,57.95
2023-10-08T07:48:15.252Z,58.14
2023-10-08T07:53:20.275Z,57.67
2023-10-08T07:58:23.805Z,58.49
2023-10-08T08:03:27.552Z,57.91
2023-10-08T08:08:32.469Z,58.36
2023-10-08T08:13:36.997Z,57.50
2023-10-08T08:18:41.334Z,56.94
2023-10-08T08:23:49.529Z,56.71
2023-10-08T08:28:53.233Z,57.20
2023-10-08T08:34:00.958Z,57.81
2023-10-08T08:39:06.385Z,58.30
2023-10-08T08:44:10.905Z,58.75
2023-10-08T08:49:15.616Z,59.33
2023-10-08T08:54:21.703Z,58.38
2023-10-08T08:59:26.131Z,58.32
2023-10-08T09:04:34.129Z,57.80
2023-10-08T09:09:40.714Z,57.52
2023-10-08T09:14:46.132Z,58.52
2023-10-08T09:19:51.562Z,58.09
2023-10-08T09:24:56.649Z,58.25
2023-10-08T09:30:00.810Z,58.72
2023-10-08T09:35:07.098Z,58.16
2023-10-08T09:40:14.202Z,58.32
2023-10-08T09:45:18.048Z,58.76
2023-10-08T09:50:29.924Z,58.26
2023-10-08T09:55:35.176Z,58.52
2023-10-08T10:00:39.691Z,59.83
2023-10-08T10:05:45.960Z,60.11
2023-10-08T10:11:01.121Z,59.91
2023-10-08T10:16:08.313Z,60.30
2023-10-08T10:21:28.805Z,61.53
2023-10-08T10:26:36.007Z,61.19
2023-10-08T10:31:41.791Z,61.04
2023-10-08T10:36:49.902Z,60.90
2023-10-08T10:41:58.697Z,60.92
2023-10-08T10:47:20.304Z,61.02
2023-10-08T10:52:45.982Z,60.45
2023-10-08T10:58:03.864Z,60.44
2023-10-08T11:03:17.729Z,61.10
2023-10-08T11:08:24.470Z,60.71
2023-10-08T11:13:38.550Z,61.01
2023-10-08T11:18:46.202Z,60.43
2023-10-08T11:23:56.855Z,60.39
2023-10-08T11:29:04.288Z,61.10
2023-10-08T11:34:11.075Z,60.64
2023-10-08T11:39:22.999Z,62.48
2023-10-08T11:44:31.920Z,60.98
2023-10-08T11:49:37.870Z,60.94
2023-10-08T11:54:43.454Z,61.73
2023-10-08T11:59:48.501Z,62.01
2023-10-08T12:04:52.889Z,61.44
2023-10-08T12:09:56.642Z,62.23
2023-10-08T12:15:04.752Z,62.32
2023-10-08T12:20:24.519Z,61.86
2023-10-08T12:25:28.387Z,62.86
2023-10-08T12:30:33.684Z,62.36
2023-10-08T12:35:38.437Z,63.15
2023-10-08T12:40:48.895Z,62.85
2023-10-08T12:45:57.909Z,61.86
2023-10-08T12:51:02.001Z,62.52
2023-10-08T12:56:07.876Z,62.90
2023-10-08T13:01:14.902Z,62.95
2023-10-08T13:06:24.228Z,61.75
2023-10-08T13:11:30.911Z,62.99
2023-10-08T13:16:38.677Z,62.76
2023-10-08T13:21:42.401Z,62.87
2023-10-08T13:26:49.295Z,63.07
2023-10-08T13:31:55.559Z,62.60
2023-10-08T13:36:59.112Z,63.38
2023-10-08T13:42:03.020Z,63.92
2023-10-08T13:47:08.036Z,63.15
2023-10-08T13:52:12.067Z,63.88
2023-10-08T13:57:16.336Z,64.00
2023-10-08T14:02:22.880Z,63.84
2023-10-08T14:07:28.701Z,64.10
2023-10-08T14:12:35.916Z,63.84
2023-10-08T14:17:45.095Z,63.56
2023-10-08T14:22:53.382Z,63.38
2023-10-08T14:28:05.820Z,63.89
2023-10-08T14:33:14.682Z,64.11
2023-10-08T14:38:35.914Z,64.03
2023-10-08T14:43:39.659Z,64.34
2023-10-08T14:48:44.908Z,63.69
2023-10-08T14:53:49.125Z,64.91
2023-10-08T14:58:52.754Z,64.68
2023-10-08T15:03:58.962Z,63.62
2023-10-08T15:09:02.711Z,64.89
2023-10-08T15:14:10.944Z,64.94
2023-10-08T15:19:17.476Z,64.61
2023-10-08T15:24:22.710Z,64.89
2023-10-08T15:29:27.549Z,64.96
2023-10-08T15:34:37.759Z,64.64
2023-10-08T15:39:42.092Z,64.97
2023-10-08T15:44:46.305Z,64.61
2023-10-08T15:49:51.292Z,64.60
2023-10-08T15:54:54.873Z,64.89
2023-10-08T15:59:58.429Z,65.38
2023-10-08T16:05:04.154Z,64.78
2023-10-08T16:10:10.234Z,65.00
2023-10-08T16:15:14.300Z,65.13
2023-10-08T16:20:19.472Z,65.23
2023-10-08T16:25:23.038Z,64.79
2023-10-08T16:30:29.158Z,65.83
2023-10-08T16:35:34.433Z,64.62
2023-10-08T16:40:37.999Z,64.92
2023-10-08T16:45:41.700Z,65.11
2023-10-08T16:50:46.848Z,64.89
2023-10-08T16:55:51.254Z,65.14
2023-10-08T17:00:54.912Z,64.32
2023-10-08T17:06:01.256Z,64.50
2023-10-08T17:11:05.443Z,65.00
2023-10-08T17:16:09.452Z,65.01
2023-10-08T17:21:16.510Z,65.21
2023-10-08T17:26:20.113Z,65.26
2023-10-08T17:31:25.118Z,64.76
2023-10-08T17:36:30.863Z,64.21
2023-10-08T17:41:34.420Z,65.23
2023-10-08T17:46:39.029Z,65.34
2023-10-08T17:51:44.161Z,65.19
2023-10-08T17:56:47.944Z,65.45
2023-10-08T18:01:51.579Z,65.20
2023-10-08T18:06:56.605Z,65.09
2023-10-08T18:12:01.778Z,64.94
2023-10-08T18:17:06.538Z,64.65
2023-10-08T18:22:11.448Z,65.12
2023-10-08T18:27:15.462Z,65.00
2023-10-08T18:32:19.035Z,65.52
2023-10-08T18:37:24.166Z,65.48
2023-10-08T18:42:28.946Z,65.39
2023-10-08T18:47:34.662Z,65.11
2023-10-08T18:52:39.680Z,65.34
2023-10-08T18:57:43.691Z,65.29
2023-10-08T19:02:47.826Z,64.68
2023-10-08T19:07:54.985Z,64.85
2023-10-08T19:12:59.131Z,64.82
2023-10-08T19:18:06.081Z,65.22
2023-10-08T19:23:12.105Z,64.98
2023-10-08T19:28:16.505Z,65.26
2023-10-08T19:33:20.890Z,64.58
2023-10-08T19:38:26.374Z,65.03
2023-10-08T19:43:30.302Z,64.97
2023-10-08T19:48:34.501Z,64.39
2023-10-08T19:53:40.021Z,65.38
2023-10-08T19:58:43.518Z,64.48
2023-10-08T20:03:48.062Z,65.32
2023-10-08T20:08:53.494Z,64.62
2023-10-08T20:13:57.084Z,65.27
2023-10-08T20:19:00.744Z,65.71
2023-10-08T20:24:05.874Z,65.50
2023-10-08T20:29:09.801Z,65.24
2023-10-08T20:34:13.461Z,65.71
2023-10-08T20:39:21.160Z,65.25
2023-10-08T20:44:24.853Z,65.33
2023-10-08T20:49:28.894Z,65.41
2023-10-08T20:54:34.366Z,65.41
2023-10-08T20:59:37.892Z,64.81
2023-10-08T21:04:41.452Z,65.48
2023-10-08T21:09:46.408Z,64.86
2023-10-08T21:14:49.995Z,65.10
2023-10-08T21:19:53.515Z,65.66
2023-10-08T21:24:58.448Z,65.26
2023-10-08T21:30:01.987Z,65.37
2023-10-08T21:35:08.867Z,65.35
2023-10-08T21:40:14.960Z,66.29
2023-10-08T21:45:20.381Z,65.44
2023-10-08T21:50:25.737Z,65.13
2023-10-08T21:55:31.201Z,65.54
2023-10-08T22:00:47.504Z,65.65
2023-10-08T22:05:53.109Z,65.99
2023-10-08T22:10:58.386Z,65.41
2023-10-08T22:16:15.180Z,65.12
2023-10-08T22:21:19.955Z,65.55
2023-10-08T22:26:25.858Z,64.82
2023-10-08T22:31:29.599Z,66.27
2023-10-08T22:36:42.976Z,65.28
2023-10-08T22:41:55.972Z,65.91
2023-10-08T22:47:11.426Z,65.28
2023-10-08T22:52:16.907Z,65.56
2023-10-08T22:57:24.746Z,65.53
2023-10-08T23:02:29.085Z,66.07
2023-10-08T23:07:32.570Z,66.19
2023-10-08T23:12:37.418Z,65.77
2023-10-08T23:17:41.519Z,65.39
2023-10-08T23:22:45.901Z,65.66
2023-10-08T23:27:50.782Z,65.89
2023-10-08T23:32:53.998Z,65.62
2023-10-08T23:38:07.439Z,65.87
2023-10-08T23:43:17.269Z,65.92
2023-10-08T23:48:21.107Z,65.91
2023-10-08T23:53:30.767Z,66.10
2023-10-08T23:58:38.780Z,65.97
